createdAt,value
2023-03-26T00:01:16.572Z,11.82
2023-03-26T00:03:43.629Z,8.25
2023-03-26T00:06:15.483Z,9.07
2023-03-26T00:08:43.676Z,8.40
2023-03-26T00:11:13.863Z,8.55
2023-03-26T00:13:41.442Z,7.40
2023-03-26T00:16:20.150Z,10.13
2023-03-26T00:18:46.579Z,7.30
2023-03-26T00:21:16.196Z,8.65
2023-03-26T00:23:45.165Z,8.35
2023-03-26T00:26:15.349Z,12.45
2023-03-26T00:28:42.648Z,10.25
2023-03-26T00:31:12.662Z,8.35
2023-03-26T00:33:40.674Z,9.55
2023-03-26T00:36:12.379Z,9.45
2023-03-26T00:38:48.894Z,9.27
2023-03-26T00:41:17.903Z,11.30
2023-03-26T00:43:46.085Z,7.70
2023-03-26T00:46:15.520Z,8.27
2023-03-26T00:48:47.460Z,7.40
2023-03-26T00:51:15.772Z,12.57
2023-03-26T00:53:46.499Z,10.60
2023-03-26T00:58:44.942Z,10.93
2023-03-26T01:01:17.190Z,15.35
2023-03-26T01:03:53.642Z,11.18
2023-03-26T01:06:29.867Z,16.88
2023-03-26T01:08:56.616Z,13.93
2023-03-26T01:11:27.444Z,22.00
2023-03-26T01:14:07.258Z,23.00
2023-03-26T01:16:42.685Z,17.27
2023-03-26T01:19:20.079Z,12.25
2023-03-26T01:21:47.405Z,16.38
2023-03-26T01:24:16.495Z,15.55
2023-03-26T01:26:42.790Z,15.13
2023-03-26T01:29:19.942Z,19.58
2023-03-26T01:32:20.632Z,23.83
2023-03-26T01:35:03.509Z,14.43
2023-03-26T01:37:40.430Z,20.95
2023-03-26T01:40:26.730Z,12.93
2023-03-26T01:43:37.729Z,11.10
2023-03-26T01:46:07.344Z,30.27
2023-03-26T01:48:40.222Z,22.75
2023-03-26T01:51:12.071Z,22.48
2023-03-26T01:53:46.352Z,18.95
2023-03-26T01:56:26.959Z,22.80
2023-03-26T01:59:33.047Z,21.23
2023-03-26T02:02:02.957Z,14.63
2023-03-26T02:04:45.848Z,19.23
2023-03-26T02:07:49.896Z,18.85
2023-03-26T02:10:38.686Z,18.17
2023-03-26T02:13:06.383Z,17.58
2023-03-26T02:15:35.559Z,21.27
2023-03-26T02:18:01.958Z,22.98
2023-03-26T02:20:28.297Z,24.17
2023-03-26T02:22:58.549Z,16.15
2023-03-26T02:25:29.654Z,17.10
2023-03-26T02:27:55.950Z,19.45
2023-03-26T02:30:24.909Z,21.33
2023-03-26T02:32:52.552Z,23.60
2023-03-26T02:35:21.606Z,21.30
2023-03-26T02:37:48.241Z,23.80
2023-03-26T02:40:14.721Z,19.45
2023-03-26T02:42:45.089Z,21.67
2023-03-26T02:45:11.404Z,19.50
2023-03-26T02:47:37.759Z,20.30
2023-03-26T02:50:04.632Z,25.70
2023-03-26T02:52:31.414Z,21.35
2023-03-26T02:54:57.711Z,22.13
2023-03-26T02:57:27.086Z,23.92
2023-03-26T02:59:56.210Z,24.48
2023-03-26T03:02:22.833Z,30.63
2023-03-26T03:04:49.222Z,20.45
2023-03-26T03:07:17.906Z,31.75
2023-03-26T03:09:46.748Z,25.00
2023-03-26T03:12:13.051Z,13.98
2023-03-26T03:14:40.557Z,25.65
2023-03-26T03:17:08.373Z,24.58
2023-03-26T03:19:34.675Z,18.73
2023-03-26T03:22:00.990Z,22.55
2023-03-26T03:24:27.343Z,21.52
2023-03-26T03:26:53.841Z,19.80
2023-03-26T03:29:27.493Z,24.38
2023-03-26T03:31:53.844Z,25.30
2023-03-26T03:34:20.146Z,21.88
2023-03-26T03:36:46.501Z,19.77
2023-03-26T03:39:19.343Z,23.38
2023-03-26T03:41:50.037Z,18.75
2023-03-26T03:44:16.338Z,23.40
2023-03-26T03:46:42.701Z,16.77
2023-03-26T03:49:09.078Z,28.38
2023-03-26T03:51:35.359Z,23.38
2023-03-26T03:54:01.712Z,17.30
2023-03-26T03:56:30.478Z,20.13
2023-03-26T03:58:56.822Z,21.85
2023-03-26T04:01:25.621Z,22.95
2023-03-26T04:03:54.356Z,25.73
2023-03-26T04:06:20.756Z,25.58
2023-03-26T04:08:47.164Z,19.67
2023-03-26T04:11:19.000Z,37.45
2023-03-26T04:13:45.392Z,18.58
2023-03-26T04:16:14.178Z,21.10
2023-03-26T04:18:40.964Z,30.45
2023-03-26T04:21:07.665Z,24.55
2023-03-26T04:23:34.500Z,23.85
2023-03-26T04:26:04.693Z,26.98
2023-03-26T04:28:30.990Z,19.95
2023-03-26T04:30:59.750Z,27.00
2023-03-26T04:33:35.058Z,25.05
2023-03-26T04:36:03.479Z,19.20
2023-03-26T04:38:31.674Z,23.48
2023-03-26T04:40:58.006Z,23.50
2023-03-26T04:43:24.340Z,32.78
2023-03-26T04:45:50.658Z,21.30
2023-03-26T04:48:18.736Z,29.92
2023-03-26T04:50:45.626Z,21.88
2023-03-26T04:53:15.452Z,18.85
2023-03-26T04:55:49.693Z,22.30
2023-03-26T04:58:16.268Z,28.85
2023-03-26T05:00:45.428Z,17.15
2023-03-26T05:03:12.436Z,23.27
2023-03-26T05:05:40.029Z,22.95
2023-03-26T05:08:06.529Z,24.73
2023-03-26T05:10:36.424Z,20.45
2023-03-26T05:13:03.887Z,28.30
2023-03-26T05:15:30.193Z,19.67
2023-03-26T05:17:57.767Z,28.17
2023-03-26T05:20:27.603Z,24.02
2023-03-26T05:22:54.002Z,26.58
2023-03-26T05:25:25.669Z,22.00
2023-03-26T05:27:52.130Z,28.08
2023-03-26T05:30:24.648Z,27.70
2023-03-26T05:32:53.485Z,23.77
2023-03-26T05:35:20.946Z,23.60
2023-03-26T05:37:50.119Z,29.85
2023-03-26T05:40:17.098Z,20.92
2023-03-26T05:42:45.073Z,28.80
2023-03-26T05:45:15.796Z,35.60
2023-03-26T05:50:09.942Z,20.90
2023-03-26T05:52:39.733Z,22.67
2023-03-26T05:55:13.356Z,25.70
2023-03-26T05:57:42.241Z,25.13
2023-03-26T06:00:08.998Z,20.63
2023-03-26T06:02:39.323Z,23.10
2023-03-26T06:05:05.998Z,23.80
2023-03-26T06:07:32.326Z,21.65
2023-03-26T06:10:01.336Z,25.25
2023-03-26T06:12:29.979Z,20.55
2023-03-26T06:14:56.264Z,27.77
2023-03-26T06:17:22.622Z,24.80
2023-03-26T06:19:51.302Z,23.58
2023-03-26T06:22:18.812Z,28.00
2023-03-26T06:24:45.118Z,23.85
2023-03-26T06:27:11.478Z,23.65
2023-03-26T06:29:37.887Z,21.95
2023-03-26T06:32:16.262Z,24.85
2023-03-26T06:34:45.741Z,24.35
2023-03-26T06:37:16.736Z,26.75
2023-03-26T06:39:43.098Z,18.75
2023-03-26T06:42:09.411Z,18.50
2023-03-26T06:44:35.748Z,22.17
2023-03-26T06:47:02.099Z,20.30
2023-03-26T06:49:28.580Z,22.98
2023-03-26T06:51:54.917Z,18.15
2023-03-26T06:54:21.204Z,23.23
2023-03-26T06:56:47.530Z,20.35
2023-03-26T06:59:13.837Z,20.40
2023-03-26T07:01:41.556Z,27.17
2023-03-26T07:04:07.911Z,18.02
2023-03-26T07:06:34.357Z,17.40
2023-03-26T07:09:03.516Z,17.75
2023-03-26T07:11:29.902Z,23.05
2023-03-26T07:13:59.217Z,17.35
2023-03-26T07:16:30.950Z,17.42
2023-03-26T07:19:07.074Z,21.40
2023-03-26T07:21:36.235Z,13.38
2023-03-26T07:24:05.798Z,14.55
2023-03-26T07:27:06.019Z,15.63
2023-03-26T07:29:43.163Z,20.55
2023-03-26T07:32:22.832Z,14.75
2023-03-26T07:35:08.027Z,21.23
2023-03-26T07:37:48.911Z,21.25
2023-03-26T07:40:53.124Z,20.27
2023-03-26T07:43:37.963Z,20.98
2023-03-26T07:46:11.005Z,13.38
2023-03-26T07:48:45.877Z,18.55
2023-03-26T07:51:12.845Z,12.18
2023-03-26T07:53:39.434Z,22.35
2023-03-26T07:56:11.580Z,18.75
2023-03-26T07:59:01.782Z,24.58
2023-03-26T08:01:52.701Z,21.92
2023-03-26T08:04:43.272Z,23.38
2023-03-26T08:07:41.868Z,16.45
2023-03-26T08:10:40.313Z,20.35
2023-03-26T08:13:34.150Z,19.23
2023-03-26T08:16:10.368Z,22.58
2023-03-26T08:19:15.381Z,24.08
2023-03-26T08:21:59.177Z,17.23
2023-03-26T08:25:03.247Z,22.15
2023-03-26T08:27:40.194Z,16.85
2023-03-26T08:30:18.613Z,24.20
2023-03-26T08:33:09.419Z,21.80
2023-03-26T08:35:37.092Z,16.30
2023-03-26T08:38:03.586Z,31.25
2023-03-26T08:40:44.854Z,26.27
2023-03-26T08:43:39.239Z,20.35
2023-03-26T08:46:14.670Z,19.75
2023-03-26T08:49:18.171Z,21.48
2023-03-26T08:52:08.466Z,23.25
2023-03-26T08:54:47.619Z,21.67
2023-03-26T08:57:50.389Z,15.32
2023-03-26T09:00:46.565Z,24.17
2023-03-26T09:03:36.597Z,13.50
2023-03-26T09:07:01.865Z,17.23
2023-03-26T09:09:40.130Z,21.25
2023-03-26T09:12:27.382Z,18.02
2023-03-26T09:15:12.699Z,24.10
2023-03-26T09:17:52.609Z,24.02
2023-03-26T09:20:47.651Z,21.00
2023-03-26T09:23:40.006Z,21.17
2023-03-26T09:26:32.054Z,25.00
2023-03-26T09:29:21.281Z,28.42
2023-03-26T09:31:59.509Z,27.48
2023-03-26T09:34:41.486Z,26.02
2023-03-26T09:37:24.829Z,25.98
2023-03-26T09:40:13.782Z,23.90
2023-03-26T09:42:49.400Z,28.30
2023-03-26T09:45:52.337Z,23.65
2023-03-26T09:48:41.115Z,21.98
2023-03-26T09:51:07.621Z,25.05
2023-03-26T09:54:05.083Z,26.10
2023-03-26T09:56:50.072Z,20.80
2023-03-26T09:59:49.600Z,23.20
2023-03-26T10:03:02.117Z,26.17
2023-03-26T10:05:44.437Z,16.90
2023-03-26T10:08:22.828Z,20.58
2023-03-26T10:10:59.253Z,18.13
2023-03-26T10:13:25.653Z,23.05
2023-03-26T10:16:13.252Z,16.27
2023-03-26T10:19:21.258Z,16.98
2023-03-26T10:22:13.278Z,19.80
2023-03-26T10:24:48.458Z,17.27
2023-03-26T10:27:26.521Z,15.43
2023-03-26T10:30:37.288Z,18.48
2023-03-26T10:33:22.436Z,15.30
2023-03-26T10:36:13.047Z,13.02
2023-03-26T10:39:04.450Z,12.30
2023-03-26T10:41:49.557Z,14.65
2023-03-26T10:44:38.045Z,17.88
2023-03-26T10:50:06.077Z,12.70
2023-03-26T10:52:41.502Z,10.55
2023-03-26T10:55:15.276Z,13.68
2023-03-26T10:57:48.976Z,11.05
2023-03-26T11:00:26.629Z,12.10
2023-03-26T11:03:12.852Z,9.32
2023-03-26T11:06:17.260Z,10.38
2023-03-26T11:09:01.620Z,12.38
2023-03-26T11:11:31.711Z,13.50
2023-03-26T11:14:28.221Z,12.50
2023-03-26T11:17:40.795Z,10.60
2023-03-26T11:20:20.214Z,8.70
2023-03-26T11:23:03.557Z,8.25
2023-03-26T11:25:45.028Z,11.88
2023-03-26T11:28:41.127Z,10.98
2023-03-26T11:31:37.734Z,10.25
2023-03-26T11:34:13.181Z,12.55
2023-03-26T11:36:46.138Z,8.60
2023-03-26T11:39:20.513Z,8.68
2023-03-26T11:41:49.654Z,8.57
2023-03-26T11:45:00.482Z,9.65
2023-03-26T11:47:33.965Z,13.15
2023-03-26T11:50:04.589Z,15.23
2023-03-26T11:52:30.918Z,11.35
2023-03-26T11:55:05.980Z,11.45
2023-03-26T11:57:36.684Z,9.27
2023-03-26T12:00:11.877Z,8.70
2023-03-26T12:02:41.323Z,10.90
2023-03-26T12:05:20.125Z,11.95
2023-03-26T12:07:52.974Z,10.38
2023-03-26T12:10:39.386Z,12.10
2023-03-26T12:13:28.291Z,7.40
2023-03-26T12:16:09.841Z,11.05
2023-03-26T12:18:41.640Z,12.90
2023-03-26T12:21:18.892Z,7.30
2023-03-26T12:23:45.132Z,6.63
2023-03-26T12:26:16.494Z,10.00
2023-03-26T12:28:50.641Z,14.68
2023-03-26T12:31:19.792Z,10.20
2023-03-26T12:34:06.105Z,10.98
2023-03-26T12:36:34.798Z,5.82
2023-03-26T12:40:11.854Z,10.02
2023-03-26T12:44:46.870Z,11.93
2023-03-26T12:45:17.966Z,7.13
2023-03-26T12:47:59.790Z,7.70
2023-03-26T12:50:45.218Z,11.07
2023-03-26T12:53:27.910Z,11.27
2023-03-26T12:56:24.217Z,7.35
2023-03-26T12:59:08.758Z,7.18
2023-03-26T13:02:26.456Z,3.85
2023-03-26T13:05:06.820Z,11.48
2023-03-26T13:07:36.953Z,11.43
2023-03-26T13:10:27.998Z,8.85
2023-03-26T13:13:41.627Z,5.07
2023-03-26T13:16:42.039Z,4.93
2023-03-26T13:19:20.785Z,6.28
2023-03-26T13:21:51.751Z,9.40
2023-03-26T13:24:53.268Z,4.10
2023-03-26T13:27:31.179Z,5.78
2023-03-26T13:30:20.133Z,3.38
2023-03-26T13:32:52.389Z,4.40
2023-03-26T13:35:36.862Z,4.35
2023-03-26T13:38:06.145Z,13.02
2023-03-26T13:40:41.523Z,9.73
2023-03-26T13:43:34.090Z,5.65
2023-03-26T13:46:17.204Z,8.75
2023-03-26T13:48:59.769Z,7.85
2023-03-26T13:51:40.281Z,7.38
2023-03-26T13:54:19.196Z,7.13
2023-03-26T13:56:59.665Z,4.88
2023-03-26T13:59:39.468Z,7.47
2023-03-26T14:02:14.896Z,3.97
2023-03-26T14:04:47.521Z,5.85
2023-03-26T14:07:32.572Z,8.52
2023-03-26T14:10:06.201Z,3.88
2023-03-26T14:13:04.522Z,3.35
2023-03-26T14:15:37.334Z,9.80
2023-03-26T14:18:28.781Z,8.55
2023-03-26T14:21:14.013Z,5.75
2023-03-26T14:24:18.771Z,9.02
2023-03-26T14:27:09.694Z,3.40
2023-03-26T14:29:56.224Z,6.90
2023-03-26T14:32:43.139Z,6.00
2023-03-26T14:35:37.822Z,7.82
2023-03-26T14:38:26.329Z,5.28
2023-03-26T14:44:17.281Z,6.63
2023-03-26T14:46:58.673Z,4.50
2023-03-26T14:50:03.755Z,3.85
2023-03-26T14:52:52.060Z,6.05
2023-03-26T14:55:40.849Z,4.07
2023-03-26T14:58:15.245Z,5.45
2023-03-26T15:01:22.426Z,2.55
2023-03-26T15:04:26.323Z,3.97
2023-03-26T15:07:32.857Z,5.85
2023-03-26T15:10:25.490Z,6.50
2023-03-26T15:13:20.933Z,4.55
2023-03-26T15:16:09.545Z,3.97
2023-03-26T15:18:50.421Z,5.60
2023-03-26T15:21:51.015Z,5.63
2023-03-26T15:24:42.821Z,4.47
2023-03-26T15:27:21.348Z,3.15
2023-03-26T15:30:16.397Z,5.28
2023-03-26T15:33:14.820Z,7.90
2023-03-26T15:36:27.996Z,6.07
2023-03-26T15:39:32.063Z,5.80
2023-03-26T15:42:16.591Z,4.07
2023-03-26T15:44:54.532Z,5.00
2023-03-26T15:47:48.146Z,4.60
2023-03-26T15:50:57.557Z,4.03
2023-03-26T15:53:49.798Z,5.57
2023-03-26T15:56:36.078Z,2.80
2023-03-26T15:59:41.290Z,6.55
2023-03-26T16:02:13.670Z,4.95
2023-03-26T16:04:59.519Z,4.50
2023-03-26T16:08:12.089Z,6.25
2023-03-26T16:10:58.393Z,4.35
2023-03-26T16:13:41.483Z,7.18
2023-03-26T16:16:14.464Z,3.97
2023-03-26T16:18:57.888Z,3.78
2023-03-26T16:21:38.938Z,3.88
2023-03-26T16:24:05.388Z,4.57
2023-03-26T16:26:31.836Z,3.85
2023-03-26T16:29:10.220Z,7.13
2023-03-26T16:31:38.704Z,8.02
2023-03-26T16:34:05.759Z,9.02
2023-03-26T16:36:35.970Z,7.68
2023-03-26T16:39:08.245Z,6.97
2023-03-26T16:41:55.712Z,4.57
2023-03-26T16:45:00.746Z,5.60
2023-03-26T16:47:59.172Z,4.82
2023-03-26T16:50:49.801Z,4.25
2023-03-26T16:53:39.252Z,5.65
2023-03-26T16:56:20.902Z,2.63
2023-03-26T16:58:59.728Z,4.43
2023-03-26T17:01:34.971Z,5.53
2023-03-26T17:04:09.611Z,6.25
2023-03-26T17:06:55.193Z,5.43
2023-03-26T17:09:51.985Z,5.13
2023-03-26T17:12:31.436Z,4.43
2023-03-26T17:15:03.892Z,6.10
2023-03-26T17:18:01.207Z,4.97
2023-03-26T17:20:37.240Z,4.15
2023-03-26T17:23:09.849Z,2.22
2023-03-26T17:25:44.237Z,5.05
2023-03-26T17:28:34.424Z,6.13
2023-03-26T17:31:21.678Z,3.60
2023-03-26T17:33:52.044Z,2.75
2023-03-26T17:36:42.854Z,7.93
2023-03-26T17:39:21.836Z,4.55
2023-03-26T17:42:18.204Z,4.75
2023-03-26T17:45:01.119Z,2.45
2023-03-26T17:47:29.297Z,4.85
2023-03-26T17:50:05.096Z,4.03
2023-03-26T17:52:48.025Z,6.32
2023-03-26T17:55:25.770Z,3.72
2023-03-26T17:57:57.856Z,6.50
2023-03-26T18:00:31.498Z,1.42
2023-03-26T18:03:06.022Z,2.50
2023-03-26T18:05:35.766Z,5.00
2023-03-26T18:08:29.991Z,2.42
2023-03-26T18:11:18.141Z,6.78
2023-03-26T18:14:07.621Z,5.65
2023-03-26T18:17:12.572Z,6.13
2023-03-26T18:20:07.868Z,4.25
2023-03-26T18:22:34.801Z,5.72
2023-03-26T18:25:02.505Z,4.80
2023-03-26T18:27:36.221Z,5.97
2023-03-26T18:30:17.179Z,6.45
2023-03-26T18:33:12.097Z,5.88
2023-03-26T18:35:53.390Z,4.72
2023-03-26T18:38:36.780Z,2.60
2023-03-26T18:41:05.884Z,1.90
2023-03-26T18:43:44.606Z,4.10
2023-03-26T18:46:14.172Z,9.57
2023-03-26T18:48:42.491Z,2.92
2023-03-26T18:51:12.686Z,4.03
2023-03-26T18:53:50.366Z,3.17
2023-03-26T18:56:42.575Z,2.83
2023-03-26T18:59:35.826Z,2.70
2023-03-26T19:02:14.050Z,3.28
2023-03-26T19:04:52.698Z,3.45
2023-03-26T19:07:23.650Z,6.10
2023-03-26T19:09:51.694Z,7.80
2023-03-26T19:12:22.910Z,3.80
2023-03-26T19:15:09.800Z,5.05
2023-03-26T19:17:44.216Z,6.43
2023-03-26T19:20:20.786Z,3.63
2023-03-26T19:22:48.198Z,6.55
2023-03-26T19:25:41.162Z,2.53
2023-03-26T19:28:16.360Z,1.95
2023-03-26T19:30:42.858Z,5.63
2023-03-26T19:33:22.995Z,3.42
2023-03-26T19:36:01.737Z,7.25
2023-03-26T19:38:29.830Z,7.78
2023-03-26T19:41:00.284Z,3.97
2023-03-26T19:43:27.223Z,10.52
2023-03-26T19:46:00.470Z,8.35
2023-03-26T19:48:45.796Z,5.38
2023-03-26T19:51:22.158Z,3.25
2023-03-26T19:53:52.963Z,6.22
2023-03-26T19:56:20.677Z,4.75
2023-03-26T19:58:47.828Z,3.90
2023-03-26T20:01:25.875Z,2.92
2023-03-26T20:03:56.174Z,2.63
2023-03-26T20:06:33.992Z,2.75
2023-03-26T20:09:05.850Z,3.83
2023-03-26T20:11:35.098Z,3.42
2023-03-26T20:14:16.390Z,2.47
2023-03-26T20:16:45.197Z,3.30
2023-03-26T20:19:12.573Z,5.55
2023-03-26T20:21:38.879Z,2.05
2023-03-26T20:24:12.433Z,3.30
2023-03-26T20:26:38.802Z,1.90
2023-03-26T20:29:06.324Z,2.67
2023-03-26T20:31:32.733Z,8.30
2023-03-26T20:34:01.473Z,4.43
2023-03-26T20:36:33.136Z,9.60
2023-03-26T20:39:02.658Z,7.32
2023-03-26T20:41:29.065Z,2.63
2023-03-26T20:43:56.856Z,2.22
2023-03-26T20:46:31.303Z,4.05
2023-03-26T20:49:00.579Z,3.80
2023-03-26T20:51:27.085Z,5.38
2023-03-26T20:53:53.477Z,2.28
2023-03-26T20:56:20.397Z,5.40
2023-03-26T20:58:50.579Z,4.43
2023-03-26T21:01:21.410Z,4.10
2023-03-26T21:03:47.741Z,6.15
2023-03-26T21:06:17.169Z,3.60
2023-03-26T21:08:45.026Z,3.05
2023-03-26T21:11:26.471Z,4.60
2023-03-26T21:14:05.832Z,1.23
2023-03-26T21:16:32.791Z,2.15
2023-03-26T21:18:59.452Z,5.40
2023-03-26T21:21:45.461Z,2.75
2023-03-26T21:24:23.257Z,5.22
2023-03-26T21:26:57.056Z,3.70
2023-03-26T21:29:23.682Z,2.65
2023-03-26T21:31:51.607Z,2.30
2023-03-26T21:34:20.130Z,5.15
2023-03-26T21:36:46.653Z,3.55
2023-03-26T21:39:13.250Z,3.88
2023-03-26T21:42:05.479Z,5.75
2023-03-26T21:44:35.211Z,3.72
2023-03-26T21:47:01.792Z,5.35
2023-03-26T21:49:28.547Z,4.20
2023-03-26T21:51:57.566Z,5.93
2023-03-26T21:54:27.430Z,6.13
2023-03-26T21:57:10.288Z,3.08
2023-03-26T21:59:47.166Z,7.00
2023-03-26T22:03:01.511Z,1.42
2023-03-26T22:06:06.375Z,2.13
2023-03-26T22:08:40.814Z,6.28
2023-03-26T22:11:10.812Z,2.83
2023-03-26T22:13:38.878Z,4.63
2023-03-26T22:16:11.934Z,1.25
2023-03-26T22:18:40.448Z,0.77
2023-03-26T22:21:09.218Z,4.90
2023-03-26T22:23:35.599Z,4.72
2023-03-26T22:26:03.164Z,5.40
2023-03-26T22:28:30.395Z,5.32
2023-03-26T22:30:56.966Z,6.22
2023-03-26T22:33:25.631Z,5.15
2023-03-26T22:35:53.185Z,2.80
2023-03-26T22:38:21.898Z,3.92
2023-03-26T22:40:55.382Z,0.77
2023-03-26T22:43:21.792Z,4.30
2023-03-26T22:45:51.841Z,5.57
2023-03-26T22:48:23.163Z,2.25
2023-03-26T22:51:01.223Z,3.38
2023-03-26T22:53:27.942Z,1.98
2023-03-26T22:55:56.465Z,2.78
2023-03-26T22:58:22.883Z,5.22
2023-03-26T23:00:51.522Z,2.92
2023-03-26T23:03:20.839Z,2.88
2023-03-26T23:06:06.666Z,5.45
2023-03-26T23:08:34.276Z,1.40
2023-03-26T23:11:01.714Z,3.53
2023-03-26T23:13:35.019Z,1.58
2023-03-26T23:16:01.474Z,2.95
2023-03-26T23:18:28.908Z,4.28
2023-03-26T23:20:58.256Z,4.13
2023-03-26T23:23:34.692Z,2.08
2023-03-26T23:26:03.541Z,2.05
2023-03-26T23:28:31.471Z,3.78
2023-03-26T23:31:01.448Z,3.78
2023-03-26T23:33:32.747Z,3.03
2023-03-26T23:36:00.338Z,3.58
2023-03-26T23:38:43.452Z,5.75
2023-03-26T23:41:11.024Z,1.33
2023-03-26T23:43:37.307Z,2.10
2023-03-26T23:46:03.694Z,1.98
2023-03-26T23:48:30.053Z,3.42
2023-03-26T23:51:03.193Z,1.63
2023-03-26T23:53:31.616Z,2.25
2023-03-26T23:55:58.620Z,2.22
2023-03-26T23:58:28.110Z,5.97
